Terminal Aerodrome Forecast
Issued by NWS Omaha/Valley, NE

Home | Current Version | Previous Version | Text Only | Print | Product List | Glossary On
Versions: 1 2 3 4 5 6 7 8 9 10 11 12 13 14 15
000
FTUS43 KOAX 210520
TAFOFK
TAF
KOFK 210520Z 2106/2206 11005KT P6SM VCTS OVC080CB
     FM210800 11006KT P6SM BKN130
     FM211000 13006KT 5SM BR BKN060
     FM211300 16005KT P6SM BKN080
     FM212100 23008KT P6SM BKN090=

USA.gov is the U.S. government's official web portal to all federal, state and local government web resources and services.